sensor_id;sensor_type;location;lat;lon;timestamp;temperature;humidity
46458;DHT22;32155;54.076;12.092;2023-06-22T00:01:09;16.60;99.90
46458;DHT22;32155;54.076;12.092;2023-06-22T00:03:44;16.50;99.90
46458;DHT22;32155;54.076;12.092;2023-06-22T00:06:10;16.50;99.90
46458;DHT22;32155;54.076;12.092;2023-06-22T00:08:36;16.50;99.90
46458;DHT22;32155;54.076;12.092;2023-06-22T00:11:04;16.50;99.90
46458;DHT22;32155;54.076;12.092;2023-06-22T00:13:30;16.50;99.90
46458;DHT22;32155;54.076;12.092;2023-06-22T00:15:56;16.50;99.90
46458;DHT22;32155;54.076;12.092;2023-06-22T00:18:21;16.50;99.90
46458;DHT22;32155;54.076;12.092;2023-06-22T00:20:47;16.50;99.90
46458;DHT22;32155;54.076;12.092;2023-06-22T00:23:15;16.50;99.90
46458;DHT22;32155;54.076;12.092;2023-06-22T00:25:43;16.50;99.90
46458;DHT22;32155;54.076;12.092;2023-06-22T00:28:11;16.40;99.90
46458;DHT22;32155;54.076;12.092;2023-06-22T00:30:37;16.40;99.90
46458;DHT22;32155;54.076;12.092;2023-06-22T00:33:06;16.40;99.90
46458;DHT22;32155;54.076;12.092;2023-06-22T00:35:34;16.40;99.90
46458;DHT22;32155;54.076;12.092;2023-06-22T00:38:00;16.40;99.90
46458;DHT22;32155;54.076;12.092;2023-06-22T00:40:30;16.40;99.90
46458;DHT22;32155;54.076;12.092;2023-06-22T00:42:56;16.40;99.90
46458;DHT22;32155;54.076;12.092;2023-06-22T00:45:22;16.30;99.90
46458;DHT22;32155;54.076;12.092;2023-06-22T00:47:56;16.30;99.90
46458;DHT22;32155;54.076;12.092;2023-06-22T00:50:28;16.30;99.90
46458;DHT22;32155;54.076;12.092;2023-06-22T00:52:59;16.30;99.90
46458;DHT22;32155;54.076;12.092;2023-06-22T00:55:33;16.40;99.90
46458;DHT22;32155;54.076;12.092;2023-06-22T00:58:06;16.40;99.90
46458;DHT22;32155;54.076;12.092;2023-06-22T01:00:35;16.40;99.90
46458;DHT22;32155;54.076;12.092;2023-06-22T01:03:01;16.20;99.90
46458;DHT22;32155;54.076;12.092;2023-06-22T01:05:27;16.20;99.90
46458;DHT22;32155;54.076;12.092;2023-06-22T01:08:06;16.10;99.90
46458;DHT22;32155;54.076;12.092;2023-06-22T01:18:22;16.00;99.90
46458;DHT22;32155;54.076;12.092;2023-06-22T01:20:52;16.00;99.90
46458;DHT22;32155;54.076;12.092;2023-06-22T01:25:54;16.00;99.90
46458;DHT22;32155;54.076;12.092;2023-06-22T01:28:39;16.00;99.90
46458;DHT22;32155;54.076;12.092;2023-06-22T01:31:07;16.00;99.90
46458;DHT22;32155;54.076;12.092;2023-06-22T01:33:35;16.00;99.90
46458;DHT22;32155;54.076;12.092;2023-06-22T01:36:16;16.00;99.90
46458;DHT22;32155;54.076;12.092;2023-06-22T01:39:00;16.00;99.90
46458;DHT22;32155;54.076;12.092;2023-06-22T01:41:36;16.00;99.90
46458;DHT22;32155;54.076;12.092;2023-06-22T01:44:34;16.00;99.90
46458;DHT22;32155;54.076;12.092;2023-06-22T01:47:15;16.00;99.90
46458;DHT22;32155;54.076;12.092;2023-06-22T01:49:57;16.00;99.90
46458;DHT22;32155;54.076;12.092;2023-06-22T01:52:32;16.00;99.90
46458;DHT22;32155;54.076;12.092;2023-06-22T01:55:00;16.00;99.90
46458;DHT22;32155;54.076;12.092;2023-06-22T01:57:35;16.00;99.90
46458;DHT22;32155;54.076;12.092;2023-06-22T02:00:11;16.00;99.90
46458;DHT22;32155;54.076;12.092;2023-06-22T02:02:59;16.00;99.90
46458;DHT22;32155;54.076;12.092;2023-06-22T02:05:29;16.00;99.90
46458;DHT22;32155;54.076;12.092;2023-06-22T02:08:07;16.00;99.90
46458;DHT22;32155;54.076;12.092;2023-06-22T02:10:37;16.00;99.90
46458;DHT22;32155;54.076;12.092;2023-06-22T02:16:15;16.00;99.90
46458;DHT22;32155;54.076;12.092;2023-06-22T02:19:17;16.00;99.90
46458;DHT22;32155;54.076;12.092;2023-06-22T02:21:36;16.00;99.90
46458;DHT22;32155;54.076;12.092;2023-06-22T02:24:07;16.00;99.90
46458;DHT22;32155;54.076;12.092;2023-06-22T02:26:33;16.00;99.90
46458;DHT22;32155;54.076;12.092;2023-06-22T02:29:12;16.10;99.90
46458;DHT22;32155;54.076;12.092;2023-06-22T02:31:55;16.10;99.90
46458;DHT22;32155;54.076;12.092;2023-06-22T02:34:24;16.10;99.90
46458;DHT22;32155;54.076;12.092;2023-06-22T02:36:49;16.10;99.90
46458;DHT22;32155;54.076;12.092;2023-06-22T02:39:22;16.20;99.90
46458;DHT22;32155;54.076;12.092;2023-06-22T02:41:48;16.30;99.90
46458;DHT22;32155;54.076;12.092;2023-06-22T02:44:14;16.20;99.90
46458;DHT22;32155;54.076;12.092;2023-06-22T02:46:42;16.20;99.90
46458;DHT22;32155;54.076;12.092;2023-06-22T02:49:21;16.20;99.90
46458;DHT22;32155;54.076;12.092;2023-06-22T02:51:47;16.30;99.90
46458;DHT22;32155;54.076;12.092;2023-06-22T02:54:28;16.40;99.90
46458;DHT22;32155;54.076;12.092;2023-06-22T02:57:05;16.40;99.90
46458;DHT22;32155;54.076;12.092;2023-06-22T02:59:50;16.40;99.90
46458;DHT22;32155;54.076;12.092;2023-06-22T03:02:38;16.60;99.90
46458;DHT22;32155;54.076;12.092;2023-06-22T03:07:57;16.60;99.90
46458;DHT22;32155;54.076;12.092;2023-06-22T03:16:34;16.60;99.90
46458;DHT22;32155;54.076;12.092;2023-06-22T03:19:19;16.60;99.90
46458;DHT22;32155;54.076;12.092;2023-06-22T03:21:50;16.60;99.90
46458;DHT22;32155;54.076;12.092;2023-06-22T03:27:10;16.70;99.90
46458;DHT22;32155;54.076;12.092;2023-06-22T03:32:55;16.70;99.90
46458;DHT22;32155;54.076;12.092;2023-06-22T03:35:23;16.70;99.90
46458;DHT22;32155;54.076;12.092;2023-06-22T03:37:52;16.70;99.90
46458;DHT22;32155;54.076;12.092;2023-06-22T03:40:18;16.70;99.90
46458;DHT22;32155;54.076;12.092;2023-06-22T03:42:43;16.80;99.90
46458;DHT22;32155;54.076;12.092;2023-06-22T03:45:09;16.90;99.90
46458;DHT22;32155;54.076;12.092;2023-06-22T03:47:37;16.90;99.90
46458;DHT22;32155;54.076;12.092;2023-06-22T03:50:11;16.90;99.90
46458;DHT22;32155;54.076;12.092;2023-06-22T03:52:40;16.90;99.90
46458;DHT22;32155;54.076;12.092;2023-06-22T03:55:14;17.00;99.90
46458;DHT22;32155;54.076;12.092;2023-06-22T03:57:40;17.10;99.90
46458;DHT22;32155;54.076;12.092;2023-06-22T04:00:07;17.10;99.90
46458;DHT22;32155;54.076;12.092;2023-06-22T04:02:34;17.20;99.90
46458;DHT22;32155;54.076;12.092;2023-06-22T04:05:00;17.30;99.90
46458;DHT22;32155;54.076;12.092;2023-06-22T04:07:26;17.30;99.90
46458;DHT22;32155;54.076;12.092;2023-06-22T04:09:51;17.40;99.90
46458;DHT22;32155;54.076;12.092;2023-06-22T04:12:19;17.60;99.90
46458;DHT22;32155;54.076;12.092;2023-06-22T04:14:45;17.70;99.90
46458;DHT22;32155;54.076;12.092;2023-06-22T04:17:12;17.70;99.90
46458;DHT22;32155;54.076;12.092;2023-06-22T04:19:39;17.80;99.90
46458;DHT22;32155;54.076;12.092;2023-06-22T04:22:05;17.70;99.90
46458;DHT22;32155;54.076;12.092;2023-06-22T04:24:32;17.80;99.90
46458;DHT22;32155;54.076;12.092;2023-06-22T04:26:58;17.80;99.90
46458;DHT22;32155;54.076;12.092;2023-06-22T04:29:25;17.80;99.90
46458;DHT22;32155;54.076;12.092;2023-06-22T04:31:54;17.90;99.90
46458;DHT22;32155;54.076;12.092;2023-06-22T04:34:21;18.00;99.90
46458;DHT22;32155;54.076;12.092;2023-06-22T04:36:49;18.10;99.90
46458;DHT22;32155;54.076;12.092;2023-06-22T04:39:14;18.30;99.90
46458;DHT22;32155;54.076;12.092;2023-06-22T04:41:42;18.50;99.90
46458;DHT22;32155;54.076;12.092;2023-06-22T04:44:11;18.70;99.90
46458;DHT22;32155;54.076;12.092;2023-06-22T04:46:49;18.90;99.90
46458;DHT22;32155;54.076;12.092;2023-06-22T04:49:19;19.10;99.90
46458;DHT22;32155;54.076;12.092;2023-06-22T04:51:45;19.30;99.90
46458;DHT22;32155;54.076;12.092;2023-06-22T04:54:10;19.50;99.90
46458;DHT22;32155;54.076;12.092;2023-06-22T04:56:36;19.60;99.90
46458;DHT22;32155;54.076;12.092;2023-06-22T04:59:02;19.60;99.90
46458;DHT22;32155;54.076;12.092;2023-06-22T05:01:31;19.70;99.90
46458;DHT22;32155;54.076;12.092;2023-06-22T05:03:58;19.80;99.90
46458;DHT22;32155;54.076;12.092;2023-06-22T05:06:28;19.80;99.90
46458;DHT22;32155;54.076;12.092;2023-06-22T05:08:57;19.80;99.90
46458;DHT22;32155;54.076;12.092;2023-06-22T05:11:26;19.90;99.90
46458;DHT22;32155;54.076;12.092;2023-06-22T05:13:52;20.00;99.90
46458;DHT22;32155;54.076;12.092;2023-06-22T05:16:18;20.20;99.90
46458;DHT22;32155;54.076;12.092;2023-06-22T05:18:52;20.40;99.90
46458;DHT22;32155;54.076;12.092;2023-06-22T05:21:26;20.60;99.90
46458;DHT22;32155;54.076;12.092;2023-06-22T05:23:55;20.70;99.90
46458;DHT22;32155;54.076;12.092;2023-06-22T05:26:21;20.90;99.90
46458;DHT22;32155;54.076;12.092;2023-06-22T05:28:47;21.00;99.90
46458;DHT22;32155;54.076;12.092;2023-06-22T05:31:13;21.10;99.90
46458;DHT22;32155;54.076;12.092;2023-06-22T05:33:40;21.20;99.90
46458;DHT22;32155;54.076;12.092;2023-06-22T05:36:05;21.20;99.90
46458;DHT22;32155;54.076;12.092;2023-06-22T05:38:31;21.30;99.90
46458;DHT22;32155;54.076;12.092;2023-06-22T05:40:56;21.30;99.90
46458;DHT22;32155;54.076;12.092;2023-06-22T05:43:22;21.30;99.90
46458;DHT22;32155;54.076;12.092;2023-06-22T05:45:50;21.40;99.90
46458;DHT22;32155;54.076;12.092;2023-06-22T05:48:15;21.50;99.90
46458;DHT22;32155;54.076;12.092;2023-06-22T05:50:41;21.50;99.90
46458;DHT22;32155;54.076;12.092;2023-06-22T05:53:07;21.80;99.90
46458;DHT22;32155;54.076;12.092;2023-06-22T05:55:33;21.80;99.90
46458;DHT22;32155;54.076;12.092;2023-06-22T05:58:14;21.80;99.90
46458;DHT22;32155;54.076;12.092;2023-06-22T06:00:40;22.20;99.90
46458;DHT22;32155;54.076;12.092;2023-06-22T06:03:06;22.50;99.90
46458;DHT22;32155;54.076;12.092;2023-06-22T06:05:32;22.50;99.90
46458;DHT22;32155;54.076;12.092;2023-06-22T06:08:01;22.80;99.90
46458;DHT22;32155;54.076;12.092;2023-06-22T06:10:27;23.10;99.90
46458;DHT22;32155;54.076;12.092;2023-06-22T06:12:55;23.30;99.90
46458;DHT22;32155;54.076;12.092;2023-06-22T06:15:20;23.30;99.90
46458;DHT22;32155;54.076;12.092;2023-06-22T06:17:49;23.40;99.90
46458;DHT22;32155;54.076;12.092;2023-06-22T06:20:17;23.40;99.90
46458;DHT22;32155;54.076;12.092;2023-06-22T06:22:43;23.70;99.90
46458;DHT22;32155;54.076;12.092;2023-06-22T06:25:09;24.10;99.90
46458;DHT22;32155;54.076;12.092;2023-06-22T06:27:45;24.30;99.90
46458;DHT22;32155;54.076;12.092;2023-06-22T06:30:11;24.70;99.90
46458;DHT22;32155;54.076;12.092;2023-06-22T06:32:37;25.00;99.90
46458;DHT22;32155;54.076;12.092;2023-06-22T06:35:07;24.90;99.90
46458;DHT22;32155;54.076;12.092;2023-06-22T06:37:35;24.80;99.90
46458;DHT22;32155;54.076;12.092;2023-06-22T06:40:00;24.80;99.90
46458;DHT22;32155;54.076;12.092;2023-06-22T06:42:26;25.20;99.90
46458;DHT22;32155;54.076;12.092;2023-06-22T06:44:52;25.40;99.90
46458;DHT22;32155;54.076;12.092;2023-06-22T06:47:18;25.50;99.90
46458;DHT22;32155;54.076;12.092;2023-06-22T06:49:44;25.90;99.90
46458;DHT22;32155;54.076;12.092;2023-06-22T06:52:10;26.30;99.90
46458;DHT22;32155;54.076;12.092;2023-06-22T06:54:35;26.90;99.90
46458;DHT22;32155;54.076;12.092;2023-06-22T06:57:03;27.40;99.90
46458;DHT22;32155;54.076;12.092;2023-06-22T06:59:31;27.80;99.90
46458;DHT22;32155;54.076;12.092;2023-06-22T07:01:59;28.10;99.90
46458;DHT22;32155;54.076;12.092;2023-06-22T07:04:27;28.30;99.90
46458;DHT22;32155;54.076;12.092;2023-06-22T07:06:52;28.70;99.90
46458;DHT22;32155;54.076;12.092;2023-06-22T07:09:18;29.00;99.90
46458;DHT22;32155;54.076;12.092;2023-06-22T07:11:44;29.00;99.90
46458;DHT22;32155;54.076;12.092;2023-06-22T07:14:12;29.30;99.90
46458;DHT22;32155;54.076;12.092;2023-06-22T07:16:38;29.00;99.90
46458;DHT22;32155;54.076;12.092;2023-06-22T07:19:07;29.10;99.90
46458;DHT22;32155;54.076;12.092;2023-06-22T07:21:35;29.40;99.90
46458;DHT22;32155;54.076;12.092;2023-06-22T07:24:00;29.50;99.90
46458;DHT22;32155;54.076;12.092;2023-06-22T07:26:28;30.10;99.90
46458;DHT22;32155;54.076;12.092;2023-06-22T07:28:56;30.20;99.90
46458;DHT22;32155;54.076;12.092;2023-06-22T07:31:23;30.20;99.90
46458;DHT22;32155;54.076;12.092;2023-06-22T07:33:49;30.80;99.90
46458;DHT22;32155;54.076;12.092;2023-06-22T07:36:14;30.90;99.90
46458;DHT22;32155;54.076;12.092;2023-06-22T07:38:40;31.30;99.90
46458;DHT22;32155;54.076;12.092;2023-06-22T07:41:05;32.00;99.90
46458;DHT22;32155;54.076;12.092;2023-06-22T07:43:31;32.20;99.90
46458;DHT22;32155;54.076;12.092;2023-06-22T07:45:58;32.20;99.90
46458;DHT22;32155;54.076;12.092;2023-06-22T07:48:24;32.60;99.90
46458;DHT22;32155;54.076;12.092;2023-06-22T07:50:49;33.10;99.90
46458;DHT22;32155;54.076;12.092;2023-06-22T07:53:15;33.30;99.60
46458;DHT22;32155;54.076;12.092;2023-06-22T07:55:40;33.50;97.30
46458;DHT22;32155;54.076;12.092;2023-06-22T07:58:06;33.40;96.60
46458;DHT22;32155;54.076;12.092;2023-06-22T08:00:34;33.30;95.70
46458;DHT22;32155;54.076;12.092;2023-06-22T08:02:59;33.40;96.70
46458;DHT22;32155;54.076;12.092;2023-06-22T08:05:28;33.40;96.30
46458;DHT22;32155;54.076;12.092;2023-06-22T08:07:54;33.00;95.40
46458;DHT22;32155;54.076;12.092;2023-06-22T08:10:21;33.70;95.00
46458;DHT22;32155;54.076;12.092;2023-06-22T08:12:48;33.60;94.80
46458;DHT22;32155;54.076;12.092;2023-06-22T08:15:14;33.30;96.20
46458;DHT22;32155;54.076;12.092;2023-06-22T08:17:40;33.00;96.10
46458;DHT22;32155;54.076;12.092;2023-06-22T08:20:08;34.20;95.30
46458;DHT22;32155;54.076;12.092;2023-06-22T08:22:40;34.40;94.70
46458;DHT22;32155;54.076;12.092;2023-06-22T08:25:06;34.40;94.60
46458;DHT22;32155;54.076;12.092;2023-06-22T08:27:32;34.10;93.80
46458;DHT22;32155;54.076;12.092;2023-06-22T08:29:58;33.10;95.50
46458;DHT22;32155;54.076;12.092;2023-06-22T08:32:24;33.20;95.50
46458;DHT22;32155;54.076;12.092;2023-06-22T08:34:52;34.00;95.20
46458;DHT22;32155;54.076;12.092;2023-06-22T08:37:18;35.20;93.30
46458;DHT22;32155;54.076;12.092;2023-06-22T08:39:43;35.70;92.60
46458;DHT22;32155;54.076;12.092;2023-06-22T08:42:09;36.40;91.20
46458;DHT22;32155;54.076;12.092;2023-06-22T08:44:37;36.70;90.10
46458;DHT22;32155;54.076;12.092;2023-06-22T08:47:02;36.30;89.50
46458;DHT22;32155;54.076;12.092;2023-06-22T08:49:28;36.90;88.80
46458;DHT22;32155;54.076;12.092;2023-06-22T08:51:54;37.40;85.80
46458;DHT22;32155;54.076;12.092;2023-06-22T08:54:22;37.70;85.00
46458;DHT22;32155;54.076;12.092;2023-06-22T08:56:47;37.50;83.90
46458;DHT22;32155;54.076;12.092;2023-06-22T08:59:13;37.60;82.70
46458;DHT22;32155;54.076;12.092;2023-06-22T09:01:38;37.70;82.00
46458;DHT22;32155;54.076;12.092;2023-06-22T09:04:04;38.00;82.10
46458;DHT22;32155;54.076;12.092;2023-06-22T09:06:31;38.50;78.50
46458;DHT22;32155;54.076;12.092;2023-06-22T09:08:57;38.80;78.70
46458;DHT22;32155;54.076;12.092;2023-06-22T09:11:25;39.20;77.30
46458;DHT22;32155;54.076;12.092;2023-06-22T09:13:50;38.70;75.20
46458;DHT22;32155;54.076;12.092;2023-06-22T09:16:17;39.10;75.10
46458;DHT22;32155;54.076;12.092;2023-06-22T09:18:45;38.60;74.50
46458;DHT22;32155;54.076;12.092;2023-06-22T09:21:14;38.90;73.30
46458;DHT22;32155;54.076;12.092;2023-06-22T09:23:39;38.80;72.10
46458;DHT22;32155;54.076;12.092;2023-06-22T09:26:08;39.40;71.60
46458;DHT22;32155;54.076;12.092;2023-06-22T09:28:33;39.20;71.10
46458;DHT22;32155;54.076;12.092;2023-06-22T09:31:02;39.90;69.20
46458;DHT22;32155;54.076;12.092;2023-06-22T09:33:27;40.00;68.50
46458;DHT22;32155;54.076;12.092;2023-06-22T09:35:53;40.40;65.60
46458;DHT22;32155;54.076;12.092;2023-06-22T09:38:18;40.20;64.70
46458;DHT22;32155;54.076;12.092;2023-06-22T09:40:44;40.40;65.90
46458;DHT22;32155;54.076;12.092;2023-06-22T09:43:09;40.70;63.00
46458;DHT22;32155;54.076;12.092;2023-06-22T09:45:35;41.30;64.10
46458;DHT22;32155;54.076;12.092;2023-06-22T09:48:03;40.50;61.00
46458;DHT22;32155;54.076;12.092;2023-06-22T09:50:29;40.80;61.10
46458;DHT22;32155;54.076;12.092;2023-06-22T09:52:55;41.10;61.00
46458;DHT22;32155;54.076;12.092;2023-06-22T09:55:22;41.20;59.00
46458;DHT22;32155;54.076;12.092;2023-06-22T10:25:19;44.20;51.40
46458;DHT22;32155;54.076;12.092;2023-06-22T10:27:48;44.30;51.30
46458;DHT22;32155;54.076;12.092;2023-06-22T10:30:14;44.50;50.00
46458;DHT22;32155;54.076;12.092;2023-06-22T10:35:47;43.80;50.20
46458;DHT22;32155;54.076;12.092;2023-06-22T10:38:12;44.10;49.30
46458;DHT22;32155;54.076;12.092;2023-06-22T10:40:38;43.60;50.30
46458;DHT22;32155;54.076;12.092;2023-06-22T10:43:05;43.90;49.40
46458;DHT22;32155;54.076;12.092;2023-06-22T10:45:32;44.20;49.20
46458;DHT22;32155;54.076;12.092;2023-06-22T10:47:58;44.00;48.20
46458;DHT22;32155;54.076;12.092;2023-06-22T10:50:35;43.70;49.80
46458;DHT22;32155;54.076;12.092;2023-06-22T10:53:04;43.30;48.70
46458;DHT22;32155;54.076;12.092;2023-06-22T10:55:38;43.30;48.30
46458;DHT22;32155;54.076;12.092;2023-06-22T10:58:09;43.90;49.20
46458;DHT22;32155;54.076;12.092;2023-06-22T11:00:35;44.30;47.40
46458;DHT22;32155;54.076;12.092;2023-06-22T11:03:06;44.50;48.00
46458;DHT22;32155;54.076;12.092;2023-06-22T11:05:32;44.30;46.70
46458;DHT22;32155;54.076;12.092;2023-06-22T11:07:58;43.70;47.70
46458;DHT22;32155;54.076;12.092;2023-06-22T11:10:24;43.60;47.30
46458;DHT22;32155;54.076;12.092;2023-06-22T11:12:50;43.40;46.80
46458;DHT22;32155;54.076;12.092;2023-06-22T11:15:16;42.70;47.60
46458;DHT22;32155;54.076;12.092;2023-06-22T11:17:42;43.00;48.30
46458;DHT22;32155;54.076;12.092;2023-06-22T11:20:07;42.60;47.30
46458;DHT22;32155;54.076;12.092;2023-06-22T11:22:39;42.00;48.10
46458;DHT22;32155;54.076;12.092;2023-06-22T11:25:06;42.50;48.00
46458;DHT22;32155;54.076;12.092;2023-06-22T11:27:41;42.70;48.10
46458;DHT22;32155;54.076;12.092;2023-06-22T11:30:27;42.60;47.90
46458;DHT22;32155;54.076;12.092;2023-06-22T11:33:02;42.30;47.70
46458;DHT22;32155;54.076;12.092;2023-06-22T11:35:30;42.40;47.80
46458;DHT22;32155;54.076;12.092;2023-06-22T11:37:58;42.60;47.90
46458;DHT22;32155;54.076;12.092;2023-06-22T11:40:24;41.60;48.40
46458;DHT22;32155;54.076;12.092;2023-06-22T11:42:50;42.30;48.90
46458;DHT22;32155;54.076;12.092;2023-06-22T11:45:15;42.70;47.80
46458;DHT22;32155;54.076;12.092;2023-06-22T11:47:44;43.00;48.40
46458;DHT22;32155;54.076;12.092;2023-06-22T11:50:09;42.60;49.10
46458;DHT22;32155;54.076;12.092;2023-06-22T11:52:35;42.30;47.90
46458;DHT22;32155;54.076;12.092;2023-06-22T11:55:01;42.80;47.80
46458;DHT22;32155;54.076;12.092;2023-06-22T11:57:29;42.30;48.20
46458;DHT22;32155;54.076;12.092;2023-06-22T11:59:55;42.70;47.70
46458;DHT22;32155;54.076;12.092;2023-06-22T12:02:24;42.30;48.60
46458;DHT22;32155;54.076;12.092;2023-06-22T12:04:49;42.10;48.10
46458;DHT22;32155;54.076;12.092;2023-06-22T12:07:18;40.60;48.60
46458;DHT22;32155;54.076;12.092;2023-06-22T12:09:52;39.50;51.20
46458;DHT22;32155;54.076;12.092;2023-06-22T12:12:21;39.40;51.30
46458;DHT22;32155;54.076;12.092;2023-06-22T12:14:55;38.00;52.70
46458;DHT22;32155;54.076;12.092;2023-06-22T12:17:28;37.20;54.00
46458;DHT22;32155;54.076;12.092;2023-06-22T12:19:54;36.60;55.30
46458;DHT22;32155;54.076;12.092;2023-06-22T12:22:20;35.60;56.10
46458;DHT22;32155;54.076;12.092;2023-06-22T12:24:49;35.30;57.50
46458;DHT22;32155;54.076;12.092;2023-06-22T12:27:15;34.60;57.90
46458;DHT22;32155;54.076;12.092;2023-06-22T12:29:41;33.90;58.60
46458;DHT22;32155;54.076;12.092;2023-06-22T12:32:07;33.60;59.40
46458;DHT22;32155;54.076;12.092;2023-06-22T12:34:33;32.90;59.10
46458;DHT22;32155;54.076;12.092;2023-06-22T12:36:58;32.90;60.80
46458;DHT22;32155;54.076;12.092;2023-06-22T12:39:24;32.60;61.10
46458;DHT22;32155;54.076;12.092;2023-06-22T12:41:50;32.80;61.60
46458;DHT22;32155;54.076;12.092;2023-06-22T12:44:15;32.80;60.60
46458;DHT22;32155;54.076;12.092;2023-06-22T12:46:41;32.10;60.60
46458;DHT22;32155;54.076;12.092;2023-06-22T12:49:07;31.80;61.10
46458;DHT22;32155;54.076;12.092;2023-06-22T12:51:32;31.60;61.40
46458;DHT22;32155;54.076;12.092;2023-06-22T12:54:04;31.50;62.60
46458;DHT22;32155;54.076;12.092;2023-06-22T12:56:29;31.50;63.00
46458;DHT22;32155;54.076;12.092;2023-06-22T12:58:55;31.70;63.30
46458;DHT22;32155;54.076;12.092;2023-06-22T13:01:22;31.70;62.80
46458;DHT22;32155;54.076;12.092;2023-06-22T13:03:48;31.80;61.90
46458;DHT22;32155;54.076;12.092;2023-06-22T13:06:14;31.40;62.30
46458;DHT22;32155;54.076;12.092;2023-06-22T13:08:40;31.00;63.00
46458;DHT22;32155;54.076;12.092;2023-06-22T13:11:05;31.00;64.40
46458;DHT22;32155;54.076;12.092;2023-06-22T13:13:31;31.00;63.80
46458;DHT22;32155;54.076;12.092;2023-06-22T13:15:56;31.00;64.30
46458;DHT22;32155;54.076;12.092;2023-06-22T13:18:22;30.90;63.20
46458;DHT22;32155;54.076;12.092;2023-06-22T13:20:52;31.00;63.60
46458;DHT22;32155;54.076;12.092;2023-06-22T13:23:20;30.70;63.50
46458;DHT22;32155;54.076;12.092;2023-06-22T13:25:48;30.70;62.90
46458;DHT22;32155;54.076;12.092;2023-06-22T13:28:18;30.50;62.70
46458;DHT22;32155;54.076;12.092;2023-06-22T13:30:43;30.70;63.90
46458;DHT22;32155;54.076;12.092;2023-06-22T13:33:15;30.70;63.60
46458;DHT22;32155;54.076;12.092;2023-06-22T13:35:59;31.00;63.00
46458;DHT22;32155;54.076;12.092;2023-06-22T13:38:45;31.00;63.20
46458;DHT22;32155;54.076;12.092;2023-06-22T13:41:10;30.90;62.80
46458;DHT22;32155;54.076;12.092;2023-06-22T13:43:36;31.40;63.20
46458;DHT22;32155;54.076;12.092;2023-06-22T13:46:02;31.70;62.10
46458;DHT22;32155;54.076;12.092;2023-06-22T13:48:27;31.40;62.10
46458;DHT22;32155;54.076;12.092;2023-06-22T13:50:57;31.40;62.10
46458;DHT22;32155;54.076;12.092;2023-06-22T13:56:04;31.60;62.30
46458;DHT22;32155;54.076;12.092;2023-06-22T13:58:38;31.30;62.00
46458;DHT22;32155;54.076;12.092;2023-06-22T14:01:03;31.20;62.80
46458;DHT22;32155;54.076;12.092;2023-06-22T14:03:32;31.00;63.00
46458;DHT22;32155;54.076;12.092;2023-06-22T14:05:58;30.80;63.50
46458;DHT22;32155;54.076;12.092;2023-06-22T14:08:26;31.10;61.60
46458;DHT22;32155;54.076;12.092;2023-06-22T14:10:55;31.10;60.90
46458;DHT22;32155;54.076;12.092;2023-06-22T14:13:21;31.10;61.20
46458;DHT22;32155;54.076;12.092;2023-06-22T14:15:46;31.00;61.60
46458;DHT22;32155;54.076;12.092;2023-06-22T14:18:13;31.10;61.00
46458;DHT22;32155;54.076;12.092;2023-06-22T14:20:40;31.00;61.20
46458;DHT22;32155;54.076;12.092;2023-06-22T14:23:05;30.90;60.40
46458;DHT22;32155;54.076;12.092;2023-06-22T14:25:34;30.70;61.70
46458;DHT22;32155;54.076;12.092;2023-06-22T14:30:59;31.20;60.40
46458;DHT22;32155;54.076;12.092;2023-06-22T14:33:35;31.50;59.80
46458;DHT22;32155;54.076;12.092;2023-06-22T14:36:04;31.80;59.20
46458;DHT22;32155;54.076;12.092;2023-06-22T14:38:30;31.60;58.90
46458;DHT22;32155;54.076;12.092;2023-06-22T14:41:01;31.50;58.50
46458;DHT22;32155;54.076;12.092;2023-06-22T14:43:27;31.30;58.60
46458;DHT22;32155;54.076;12.092;2023-06-22T14:46:03;31.30;59.00
46458;DHT22;32155;54.076;12.092;2023-06-22T14:48:34;31.30;59.20
46458;DHT22;32155;54.076;12.092;2023-06-22T14:51:10;31.30;59.30
46458;DHT22;32155;54.076;12.092;2023-06-22T14:53:41;31.10;58.40
46458;DHT22;32155;54.076;12.092;2023-06-22T14:56:08;30.90;60.70
46458;DHT22;32155;54.076;12.092;2023-06-22T14:58:44;30.40;58.80
46458;DHT22;32155;54.076;12.092;2023-06-22T15:01:13;30.40;59.70
46458;DHT22;32155;54.076;12.092;2023-06-22T15:12:37;31.00;59.20
46458;DHT22;32155;54.076;12.092;2023-06-22T15:44:07;29.60;61.20
46458;DHT22;32155;54.076;12.092;2023-06-22T15:46:46;29.60;62.60
46458;DHT22;32155;54.076;12.092;2023-06-22T15:55:56;29.30;63.30
46458;DHT22;32155;54.076;12.092;2023-06-22T15:59:01;29.10;64.30
46458;DHT22;32155;54.076;12.092;2023-06-22T16:05:22;29.00;65.10
46458;DHT22;32155;54.076;12.092;2023-06-22T16:08:23;29.00;65.50
46458;DHT22;32155;54.076;12.092;2023-06-22T16:14:36;29.30;65.60
46458;DHT22;32155;54.076;12.092;2023-06-22T16:20:42;28.80;68.10
46458;DHT22;32155;54.076;12.092;2023-06-22T16:23:26;28.60;67.90
46458;DHT22;32155;54.076;12.092;2023-06-22T16:44:54;28.70;69.50
46458;DHT22;32155;54.076;12.092;2023-06-22T16:57:20;28.80;69.30
46458;DHT22;32155;54.076;12.092;2023-06-22T17:00:33;28.70;69.40
46458;DHT22;32155;54.076;12.092;2023-06-22T17:06:00;28.50;68.90
46458;DHT22;32155;54.076;12.092;2023-06-22T17:17:54;28.00;70.80
46458;DHT22;32155;54.076;12.092;2023-06-22T17:30:09;27.50;69.50
46458;DHT22;32155;54.076;12.092;2023-06-22T17:32:54;27.50;69.40
46458;DHT22;32155;54.076;12.092;2023-06-22T17:39:10;27.20;68.60
46458;DHT22;32155;54.076;12.092;2023-06-22T17:41:51;27.10;66.50
46458;DHT22;32155;54.076;12.092;2023-06-22T17:44:25;27.00;67.90
46458;DHT22;32155;54.076;12.092;2023-06-22T17:47:10;27.00;68.50
46458;DHT22;32155;54.076;12.092;2023-06-22T17:55:49;26.60;71.30
46458;DHT22;32155;54.076;12.092;2023-06-22T18:10:46;26.00;78.10
46458;DHT22;32155;54.076;12.092;2023-06-22T18:16:45;25.80;80.00
46458;DHT22;32155;54.076;12.092;2023-06-22T18:19:37;25.70;81.50
46458;DHT22;32155;54.076;12.092;2023-06-22T18:31:34;25.40;84.60
46458;DHT22;32155;54.076;12.092;2023-06-22T18:34:00;25.20;83.10
46458;DHT22;32155;54.076;12.092;2023-06-22T18:36:30;25.00;82.10
46458;DHT22;32155;54.076;12.092;2023-06-22T18:39:08;25.00;82.40
46458;DHT22;32155;54.076;12.092;2023-06-22T18:42:10;24.90;82.80
46458;DHT22;32155;54.076;12.092;2023-06-22T18:44:39;24.70;83.00
46458;DHT22;32155;54.076;12.092;2023-06-22T18:47:08;24.70;82.40
46458;DHT22;32155;54.076;12.092;2023-06-22T18:58:17;24.50;82.40
46458;DHT22;32155;54.076;12.092;2023-06-22T19:03:42;24.40;82.50
46458;DHT22;32155;54.076;12.092;2023-06-22T19:06:08;24.20;81.80